createdAt,value
2019-04-04T00:01:35.766Z,11.37
2019-04-04T00:04:05.116Z,9.83
2019-04-04T00:06:34.497Z,8.83
2019-04-04T00:09:05.540Z,8.57
2019-04-04T00:11:35.017Z,9.93
2019-04-04T00:14:05.908Z,8.50
2019-04-04T00:16:35.240Z,7.00
2019-04-04T00:19:04.600Z,7.80
2019-04-04T00:21:34.547Z,7.33
2019-04-04T00:24:04.019Z,7.53
2019-04-04T00:26:33.356Z,7.70
2019-04-04T00:29:02.772Z,7.47
2019-04-04T00:31:32.124Z,7.77
2019-04-04T00:34:01.471Z,5.90
2019-04-04T00:36:33.741Z,7.93
2019-04-04T00:39:01.811Z,14.00
2019-04-04T00:41:31.167Z,14.30
2019-04-04T00:44:00.510Z,9.13
2019-04-04T00:46:31.001Z,8.67
2019-04-04T00:49:00.920Z,8.00
2019-04-04T00:51:30.276Z,8.70
2019-04-04T00:53:59.613Z,9.93
2019-04-04T00:56:28.974Z,8.80
2019-04-04T00:58:58.313Z,6.70
2019-04-04T01:01:27.672Z,8.20
2019-04-04T01:03:57.000Z,9.67
2019-04-04T01:06:26.352Z,7.97
2019-04-04T01:08:55.685Z,9.43
2019-04-04T01:11:25.032Z,7.70
2019-04-04T01:13:57.564Z,9.87
2019-04-04T01:16:25.396Z,8.87
2019-04-04T01:18:54.728Z,9.23
2019-04-04T01:21:24.100Z,10.20
2019-04-04T01:23:53.423Z,9.30
2019-04-04T01:26:22.776Z,6.90
2019-04-04T01:28:52.220Z,8.40
2019-04-04T01:31:21.577Z,9.53
2019-04-04T01:33:51.713Z,11.50
2019-04-04T01:36:21.109Z,10.80
2019-04-04T01:38:50.461Z,9.83
2019-04-04T01:41:19.812Z,9.60
2019-04-04T01:43:49.144Z,8.77
2019-04-04T01:46:18.504Z,11.17
2019-04-04T01:48:49.741Z,9.37
2019-04-04T01:51:18.986Z,8.90
2019-04-04T01:53:48.336Z,8.40
2019-04-04T01:56:17.687Z,8.30
2019-04-04T01:58:47.033Z,8.97
2019-04-04T02:01:17.051Z,9.57
2019-04-04T02:03:46.444Z,9.70
2019-04-04T02:06:15.802Z,6.50
2019-04-04T02:08:45.150Z,7.73
2019-04-04T02:11:14.508Z,7.70
2019-04-04T02:13:43.865Z,8.50
2019-04-04T02:16:14.882Z,8.00
2019-04-04T02:18:44.220Z,10.50
2019-04-04T02:21:13.590Z,11.17
2019-04-04T02:23:42.920Z,13.67
2019-04-04T02:26:12.299Z,11.80
2019-04-04T02:28:41.640Z,10.00
2019-04-04T02:31:11.459Z,10.47
2019-04-04T02:33:40.789Z,9.50
2019-04-04T02:36:10.146Z,9.80
2019-04-04T02:38:39.485Z,9.63
2019-04-04T02:41:08.853Z,9.10
2019-04-04T02:43:38.184Z,13.03
2019-04-04T02:46:11.046Z,8.63
2019-04-04T02:48:38.544Z,9.77
2019-04-04T02:51:08.342Z,11.17
2019-04-04T02:53:37.854Z,9.60
2019-04-04T02:56:07.209Z,9.47
2019-04-04T02:58:36.544Z,13.60
2019-04-04T03:01:05.904Z,10.07
2019-04-04T03:03:35.256Z,12.03
2019-04-04T03:06:04.618Z,9.97
2019-04-04T03:08:36.714Z,11.97
2019-04-04T03:11:05.466Z,9.20
2019-04-04T03:13:34.791Z,9.57
2019-04-04T03:16:04.192Z,9.30
2019-04-04T03:18:34.783Z,8.47
2019-04-04T03:21:04.549Z,9.17
2019-04-04T03:23:33.998Z,11.83
2019-04-04T03:26:03.342Z,12.57
2019-04-04T03:28:32.684Z,13.33
2019-04-04T03:31:03.568Z,13.90
2019-04-04T03:33:33.101Z,13.17
2019-04-04T03:36:02.413Z,14.03
2019-04-04T03:38:31.783Z,13.37
2019-04-04T03:41:01.107Z,9.70
2019-04-04T03:43:30.504Z,9.23
2019-04-04T03:46:01.330Z,10.17
2019-04-04T03:48:31.024Z,9.80
2019-04-04T03:51:03.586Z,12.00
2019-04-04T03:53:31.367Z,14.40
2019-04-04T03:56:01.474Z,12.40
2019-04-04T03:58:31.076Z,10.00
2019-04-04T04:01:00.523Z,9.70
2019-04-04T04:03:29.888Z,10.77
2019-04-04T04:05:59.228Z,11.57
2019-04-04T04:08:28.610Z,9.10
2019-04-04T04:10:57.948Z,8.77
2019-04-04T04:13:27.353Z,10.03
2019-04-04T04:15:56.706Z,11.10
2019-04-04T04:18:26.072Z,15.07
2019-04-04T04:20:55.416Z,16.80
2019-04-04T04:23:24.787Z,13.93
2019-04-04T04:25:54.140Z,17.33
2019-04-04T04:28:23.516Z,19.10
2019-04-04T04:30:52.883Z,17.17
2019-04-04T04:33:22.256Z,13.20
2019-04-04T04:35:51.606Z,13.87
2019-04-04T04:38:25.561Z,12.20
2019-04-04T04:40:51.975Z,14.20
2019-04-04T04:43:21.354Z,14.57
2019-04-04T04:45:50.700Z,9.50
2019-04-04T04:48:20.081Z,9.97
2019-04-04T04:50:49.424Z,14.37
2019-04-04T04:53:19.577Z,11.80
2019-04-04T04:55:49.054Z,17.07
2019-04-04T04:58:18.420Z,13.37
2019-04-04T05:00:47.929Z,11.70
2019-04-04T05:03:17.344Z,10.40
2019-04-04T05:05:46.697Z,10.20
2019-04-04T05:08:16.068Z,10.40
2019-04-04T05:10:45.897Z,9.13
2019-04-04T05:13:15.684Z,15.50
2019-04-04T05:15:45.105Z,15.87
2019-04-04T05:18:16.339Z,12.53
2019-04-04T05:20:45.478Z,11.37
2019-04-04T05:23:15.499Z,10.07
2019-04-04T05:25:53.760Z,12.67
2019-04-04T05:28:16.628Z,12.10
2019-04-04T05:30:47.174Z,9.90
2019-04-04T05:33:17.026Z,12.17
2019-04-04T05:35:46.396Z,10.83
2019-04-04T05:38:15.768Z,10.43
2019-04-04T05:40:45.134Z,9.20
2019-04-04T05:43:15.060Z,9.67
2019-04-04T05:45:45.247Z,9.70
2019-04-04T05:48:15.299Z,10.47
2019-04-04T05:50:44.651Z,11.60
2019-04-04T05:53:13.951Z,8.90
2019-04-04T05:55:43.299Z,11.00
2019-04-04T05:58:12.669Z,10.00
2019-04-04T06:00:44.338Z,8.07
2019-04-04T06:03:15.165Z,10.90
2019-04-04T06:05:44.715Z,9.27
2019-04-04T06:08:14.069Z,8.73
2019-04-04T06:10:43.411Z,6.17
2019-04-04T06:13:12.771Z,5.87
2019-04-04T06:15:42.116Z,7.87
2019-04-04T06:18:12.049Z,6.73
2019-04-04T06:20:41.448Z,6.70
2019-04-04T06:23:10.816Z,8.13
2019-04-04T06:25:40.165Z,6.67
2019-04-04T06:28:09.894Z,7.17
2019-04-04T06:30:43.390Z,4.40
2019-04-04T06:33:11.599Z,7.23
2019-04-04T06:35:40.944Z,6.20
2019-04-04T06:38:10.312Z,5.43
2019-04-04T06:40:39.660Z,10.27
2019-04-04T06:43:11.516Z,9.97
2019-04-04T06:45:40.016Z,7.73
2019-04-04T06:48:09.399Z,5.10
2019-04-04T06:50:41.423Z,5.80
2019-04-04T06:53:09.761Z,6.60
2019-04-04T06:55:40.262Z,5.57
2019-04-04T06:58:09.797Z,5.10
2019-04-04T07:00:41.887Z,7.10
2019-04-04T07:03:10.128Z,5.80
2019-04-04T07:05:39.465Z,4.67
2019-04-04T07:08:08.830Z,4.87
2019-04-04T07:10:38.181Z,6.90
2019-04-04T07:13:21.142Z,5.70
2019-04-04T07:15:46.834Z,4.17
2019-04-04T07:18:10.129Z,5.63
2019-04-04T07:20:40.599Z,6.97
2019-04-04T07:23:09.964Z,6.20
2019-04-04T07:25:39.881Z,4.30
2019-04-04T07:28:09.589Z,4.13
2019-04-04T07:30:38.958Z,14.73
2019-04-04T07:33:11.788Z,4.30
2019-04-04T07:35:39.319Z,5.93
2019-04-04T07:38:08.685Z,5.40
2019-04-04T07:40:38.027Z,5.33
2019-04-04T07:43:08.726Z,5.73
2019-04-04T07:45:38.148Z,6.90
2019-04-04T07:48:07.487Z,5.20
2019-04-04T07:50:36.851Z,5.50
2019-04-04T07:53:06.339Z,7.60
2019-04-04T07:55:35.721Z,6.50
2019-04-04T07:58:05.124Z,7.40
2019-04-04T08:00:34.494Z,7.90
2019-04-04T08:03:04.068Z,9.73
2019-04-04T08:05:33.436Z,4.57
2019-04-04T08:08:02.776Z,6.70
2019-04-04T08:10:32.140Z,6.60
2019-04-04T08:13:01.484Z,7.10
2019-04-04T08:15:31.442Z,6.23
2019-04-04T08:18:00.790Z,7.20
2019-04-04T08:20:30.159Z,5.70
2019-04-04T08:22:59.509Z,5.50
2019-04-04T08:25:28.883Z,4.60
2019-04-04T08:27:58.288Z,4.70
2019-04-04T08:30:27.667Z,7.40
2019-04-04T08:32:57.020Z,6.07
2019-04-04T08:35:26.388Z,6.47
2019-04-04T08:37:56.068Z,5.60
2019-04-04T08:40:25.433Z,7.67
2019-04-04T08:42:54.771Z,8.77
2019-04-04T08:45:24.144Z,6.77
2019-04-04T08:47:53.485Z,9.93
2019-04-04T08:50:22.836Z,9.80
2019-04-04T08:52:52.175Z,8.50
2019-04-04T08:55:21.543Z,9.67
2019-04-04T08:57:50.891Z,7.77
2019-04-04T09:00:20.260Z,10.63
2019-04-04T09:02:49.600Z,10.43
2019-04-04T09:05:18.977Z,11.77
2019-04-04T09:07:48.316Z,12.80
2019-04-04T09:10:17.686Z,13.70
2019-04-04T09:12:47.024Z,14.00
2019-04-04T09:15:16.384Z,13.47
2019-04-04T09:17:45.749Z,14.20
2019-04-04T09:20:15.227Z,13.10
2019-04-04T09:22:44.584Z,19.23
2019-04-04T09:25:14.158Z,14.97
2019-04-04T09:27:43.501Z,19.43
2019-04-04T09:30:13.288Z,20.13
2019-04-04T09:32:42.650Z,19.90
2019-04-04T09:35:12.014Z,16.77
2019-04-04T09:37:41.363Z,20.07
2019-04-04T09:40:11.027Z,20.37
2019-04-04T09:42:40.377Z,19.10
2019-04-04T09:45:10.856Z,19.13
2019-04-04T09:47:40.225Z,16.13
2019-04-04T09:50:10.416Z,17.83
2019-04-04T09:52:39.803Z,20.23
2019-04-04T09:55:09.584Z,19.17
2019-04-04T09:57:38.867Z,17.43
2019-04-04T10:00:12.259Z,21.57
2019-04-04T10:02:42.094Z,18.60
2019-04-04T10:05:11.807Z,17.40
2019-04-04T10:07:41.095Z,18.97
2019-04-04T10:10:11.024Z,16.60
2019-04-04T10:12:40.397Z,16.87
2019-04-04T10:15:10.167Z,11.20
2019-04-04T10:17:39.513Z,7.73
2019-04-04T10:20:09.280Z,6.00
2019-04-04T10:22:38.644Z,7.97
2019-04-04T10:25:08.115Z,8.10
2019-04-04T10:27:37.465Z,9.43
2019-04-04T10:30:08.489Z,9.17
2019-04-04T10:32:37.848Z,7.70
2019-04-04T10:35:07.971Z,13.40
2019-04-04T10:37:37.309Z,10.10
2019-04-04T10:40:07.808Z,9.53
2019-04-04T10:42:37.356Z,9.50
2019-04-04T10:45:07.336Z,9.53
2019-04-04T10:47:36.693Z,12.40
2019-04-04T10:50:07.550Z,10.37
2019-04-04T10:52:36.901Z,10.73
2019-04-04T10:55:06.600Z,11.33
2019-04-04T10:57:35.943Z,9.37
2019-04-04T11:00:08.819Z,19.50
2019-04-04T11:02:38.272Z,13.73
2019-04-04T11:05:07.735Z,11.43
2019-04-04T11:07:37.084Z,14.40
2019-04-04T11:10:06.692Z,14.47
2019-04-04T11:12:36.071Z,14.50
2019-04-04T11:15:05.762Z,13.30
2019-04-04T11:17:35.119Z,12.50
2019-04-04T11:20:04.616Z,10.53
2019-04-04T11:22:33.971Z,13.03
2019-04-04T11:25:03.396Z,15.27
2019-04-04T11:27:32.736Z,13.70
2019-04-04T11:30:02.148Z,14.73
2019-04-04T11:32:31.509Z,12.67
2019-04-04T11:35:00.874Z,13.20
2019-04-04T11:37:30.168Z,12.70
2019-04-04T11:39:59.529Z,12.63
2019-04-04T11:42:28.911Z,14.63
2019-04-04T11:44:58.268Z,11.37
2019-04-04T11:47:27.648Z,16.30
2019-04-04T11:49:57.009Z,11.97
2019-04-04T11:52:26.380Z,14.30
2019-04-04T11:55:02.949Z,15.93
2019-04-04T11:57:32.329Z,11.47
2019-04-04T12:00:01.682Z,13.57
2019-04-04T12:02:32.740Z,12.93
2019-04-04T12:05:02.337Z,11.50
2019-04-04T12:07:31.716Z,13.70
2019-04-04T12:10:07.388Z,13.43
2019-04-04T12:12:32.418Z,12.13
2019-04-04T12:15:01.907Z,11.93
2019-04-04T12:17:31.771Z,12.50
2019-04-04T12:20:01.156Z,11.97
2019-04-04T12:22:31.705Z,16.03
2019-04-04T12:25:01.078Z,13.80
2019-04-04T12:27:30.444Z,11.43
2019-04-04T12:29:59.859Z,13.73
2019-04-04T12:32:29.251Z,12.93
2019-04-04T12:34:58.592Z,14.40
2019-04-04T12:37:27.968Z,11.03
2019-04-04T12:39:57.339Z,11.90
2019-04-04T12:42:26.704Z,14.00
2019-04-04T12:44:56.080Z,10.90
2019-04-04T12:47:25.484Z,11.13
2019-04-04T12:49:54.848Z,13.23
2019-04-04T12:52:24.229Z,10.30
2019-04-04T12:54:53.583Z,10.83
2019-04-04T12:57:22.980Z,12.23
2019-04-04T12:59:52.528Z,11.83
2019-04-04T13:02:22.209Z,14.13
2019-04-04T13:04:51.569Z,12.60
2019-04-04T13:07:20.936Z,13.20
2019-04-04T13:09:50.284Z,13.00
2019-04-04T13:12:19.670Z,14.23
2019-04-04T13:14:49.028Z,14.30
2019-04-04T13:17:18.408Z,11.60
2019-04-04T13:19:47.756Z,12.90
2019-04-04T13:22:17.132Z,12.53
2019-04-04T13:24:46.492Z,11.20
2019-04-04T13:27:17.768Z,12.00
2019-04-04T13:29:46.876Z,11.00
2019-04-04T13:32:16.282Z,11.40
2019-04-04T13:34:58.344Z,13.97
2019-04-04T13:37:16.693Z,10.93
2019-04-04T13:39:45.999Z,9.80
2019-04-04T13:42:15.378Z,10.00
2019-04-04T13:44:45.017Z,15.27
2019-04-04T13:47:14.427Z,14.00
2019-04-04T13:49:44.340Z,11.53
2019-04-04T13:52:14.456Z,10.27
2019-04-04T13:54:43.880Z,10.43
2019-04-04T13:57:13.277Z,12.00
2019-04-04T13:59:42.636Z,12.17
2019-04-04T14:02:12.019Z,16.20
2019-04-04T14:04:41.370Z,11.83
2019-04-04T14:07:10.749Z,12.93
2019-04-04T14:09:40.108Z,11.83
2019-04-04T14:12:09.420Z,12.33
2019-04-04T14:14:38.772Z,10.73
2019-04-04T14:17:08.144Z,13.70
2019-04-04T14:19:37.495Z,14.30
2019-04-04T14:22:06.875Z,14.60
2019-04-04T14:24:36.234Z,12.23
2019-04-04T14:27:05.806Z,17.20
2019-04-04T14:29:35.094Z,17.53
2019-04-04T14:32:04.505Z,16.20
2019-04-04T14:34:33.914Z,15.73
2019-04-04T14:37:03.288Z,15.27
2019-04-04T14:39:32.678Z,17.90
2019-04-04T14:42:02.015Z,19.13
2019-04-04T14:44:31.411Z,17.63
2019-04-04T14:47:00.792Z,22.17
2019-04-04T14:49:30.149Z,19.07
2019-04-04T14:51:59.515Z,18.90
2019-04-04T14:54:29.271Z,16.13
2019-04-04T14:56:59.246Z,16.90
2019-04-04T14:59:28.587Z,19.33
2019-04-04T15:01:57.955Z,18.40
2019-04-04T15:04:27.300Z,19.03
2019-04-04T15:06:56.667Z,23.97
2019-04-04T15:09:26.063Z,19.13
2019-04-04T15:11:55.464Z,18.90
2019-04-04T15:14:24.833Z,24.73
2019-04-04T15:16:54.317Z,25.00
2019-04-04T15:19:23.652Z,19.53
2019-04-04T15:21:53.027Z,19.97
2019-04-04T15:24:22.401Z,21.23
2019-04-04T15:26:51.749Z,20.20
2019-04-04T15:29:21.116Z,22.40
2019-04-04T15:31:50.497Z,25.70
2019-04-04T15:34:19.867Z,23.83
2019-04-04T15:36:49.236Z,26.13
2019-04-04T15:39:18.616Z,26.13
2019-04-04T15:41:47.985Z,27.07
2019-04-04T15:44:17.396Z,26.57
2019-04-04T15:46:46.811Z,23.83
2019-04-04T15:49:16.106Z,24.07
2019-04-04T15:51:45.455Z,27.00
2019-04-04T15:54:14.825Z,27.97
2019-04-04T15:56:44.180Z,35.30
2019-04-04T15:59:13.613Z,31.40
2019-04-04T16:01:42.965Z,31.80
2019-04-04T16:04:12.336Z,31.13
2019-04-04T16:06:41.681Z,27.37
2019-04-04T16:09:11.149Z,28.30
2019-04-04T16:11:49.243Z,29.33
2019-04-04T16:14:11.512Z,31.27
2019-04-04T16:16:40.859Z,26.30
2019-04-04T16:19:10.238Z,26.07
2019-04-04T16:21:39.942Z,27.30
2019-04-04T16:24:09.694Z,24.50
2019-04-04T16:26:39.060Z,21.23
2019-04-04T16:29:08.426Z,21.50
2019-04-04T16:31:37.797Z,16.00
2019-04-04T16:34:07.200Z,15.60
2019-04-04T16:36:36.567Z,14.90
2019-04-04T16:39:08.389Z,14.20
2019-04-04T16:42:01.697Z,13.40
2019-04-04T16:44:20.883Z,11.10
2019-04-04T16:46:50.224Z,9.00
2019-04-04T16:49:19.577Z,9.20
2019-04-04T16:51:48.914Z,10.00
2019-04-04T16:54:18.262Z,9.50
2019-04-04T16:56:47.590Z,8.03
2019-04-04T16:59:16.945Z,7.77
2019-04-04T17:01:46.304Z,9.50
2019-04-04T17:04:15.667Z,7.97
2019-04-04T17:06:44.994Z,9.60
2019-04-04T17:09:14.405Z,6.93
2019-04-04T17:11:43.731Z,8.33
2019-04-04T17:14:13.091Z,8.87
2019-04-04T17:16:42.424Z,9.60
2019-04-04T17:19:11.799Z,13.33
2019-04-04T17:21:41.139Z,11.77
2019-04-04T17:24:10.552Z,12.43
2019-04-04T17:26:39.919Z,12.67
2019-04-04T17:29:09.280Z,8.60
2019-04-04T17:31:38.816Z,7.47
2019-04-04T17:34:08.693Z,11.53
2019-04-04T17:36:38.075Z,7.93
2019-04-04T17:39:08.739Z,10.47
2019-04-04T17:41:38.183Z,11.40
2019-04-04T17:44:07.621Z,10.50
2019-04-04T17:46:37.054Z,10.00
2019-04-04T17:49:06.647Z,8.77
2019-04-04T17:51:36.580Z,11.23
2019-04-04T17:54:06.126Z,9.00
2019-04-04T17:56:35.461Z,10.87
2019-04-04T17:59:04.810Z,12.60
2019-04-04T18:01:34.416Z,11.73
2019-04-04T18:04:03.908Z,11.13
2019-04-04T18:06:33.250Z,13.60
2019-04-04T18:09:02.603Z,11.20
2019-04-04T18:11:31.952Z,12.77
2019-04-04T18:14:01.320Z,14.50
2019-04-04T18:16:30.655Z,13.70
2019-04-04T18:19:00.015Z,10.97
2019-04-04T18:21:29.366Z,15.00
2019-04-04T18:23:58.727Z,13.27
2019-04-04T18:26:28.063Z,15.93
2019-04-04T18:28:57.420Z,13.33
2019-04-04T18:31:26.783Z,13.70
2019-04-04T18:33:56.216Z,14.30
2019-04-04T18:36:25.583Z,16.20
2019-04-04T18:38:54.948Z,17.30
2019-04-04T18:41:24.300Z,16.20
2019-04-04T18:43:53.687Z,13.87
2019-04-04T18:46:23.055Z,22.00
2019-04-04T18:48:52.406Z,18.77
2019-04-04T18:51:21.780Z,20.30
2019-04-04T18:53:51.112Z,19.50
2019-04-04T18:56:20.481Z,25.90
2019-04-04T18:58:49.814Z,30.57
2019-04-04T19:01:19.177Z,25.63
2019-04-04T19:03:48.517Z,24.83
2019-04-04T19:06:17.875Z,31.03
2019-04-04T19:08:47.232Z,29.07
2019-04-04T19:11:16.586Z,33.57
2019-04-04T19:13:45.967Z,25.73
2019-04-04T19:16:15.287Z,27.97
2019-04-04T19:18:44.627Z,27.10
2019-04-04T19:21:13.994Z,30.30
2019-04-04T19:23:49.016Z,27.40
2019-04-04T19:26:14.347Z,24.50
2019-04-04T19:28:43.691Z,33.70
2019-04-04T19:31:13.090Z,29.60
2019-04-04T19:33:42.472Z,29.17
2019-04-04T19:36:11.827Z,26.93
2019-04-04T19:38:41.176Z,29.20
2019-04-04T19:41:10.536Z,26.90
2019-04-04T19:43:39.875Z,23.23
2019-04-04T19:46:09.284Z,21.13
2019-04-04T19:48:38.552Z,21.00
2019-04-04T19:51:07.930Z,18.90
2019-04-04T19:53:37.275Z,20.07
2019-04-04T19:56:06.637Z,15.00
2019-04-04T19:58:35.983Z,17.83
2019-04-04T20:01:06.259Z,14.93
2019-04-04T20:03:35.614Z,11.50
2019-04-04T20:06:04.974Z,13.97
2019-04-04T20:08:34.321Z,17.00
2019-04-04T20:11:03.687Z,10.90
2019-04-04T20:13:33.027Z,12.13
2019-04-04T20:16:02.393Z,13.50
2019-04-04T20:18:31.735Z,9.27
2019-04-04T20:21:01.100Z,11.57
2019-04-04T20:23:30.452Z,12.00
2019-04-04T20:25:59.811Z,11.00
2019-04-04T20:28:29.200Z,11.83
2019-04-04T20:30:58.579Z,12.07
2019-04-04T20:33:27.954Z,13.63
2019-04-04T20:35:57.322Z,16.30
2019-04-04T20:38:26.750Z,15.27
2019-04-04T20:40:56.035Z,12.20
2019-04-04T20:43:25.379Z,13.43
2019-04-04T20:45:54.735Z,16.37
2019-04-04T20:48:24.076Z,15.13
2019-04-04T20:50:53.442Z,11.13
2019-04-04T20:53:22.783Z,12.30
2019-04-04T20:55:52.140Z,13.80
2019-04-04T20:58:21.497Z,13.73
2019-04-04T21:00:50.861Z,12.50
2019-04-04T21:03:20.203Z,13.63
2019-04-04T21:05:49.564Z,11.40
2019-04-04T21:08:18.908Z,15.40
2019-04-04T21:10:48.263Z,12.50
2019-04-04T21:13:17.613Z,12.60
2019-04-04T21:15:47.027Z,14.07
2019-04-04T21:18:16.377Z,12.80
2019-04-04T21:20:45.848Z,13.60
2019-04-04T21:23:15.194Z,14.20
2019-04-04T21:25:44.546Z,12.70
2019-04-04T21:28:13.890Z,16.93
2019-04-04T21:30:43.252Z,13.20
2019-04-04T21:33:12.624Z,13.20
2019-04-04T21:35:41.987Z,14.60
2019-04-04T21:38:11.336Z,12.40
2019-04-04T21:40:40.708Z,13.90
2019-04-04T21:43:10.051Z,14.90
2019-04-04T21:45:39.435Z,13.47
2019-04-04T21:48:08.713Z,17.53
2019-04-04T21:50:38.402Z,12.87
2019-04-04T21:53:07.915Z,15.27
2019-04-04T21:55:37.281Z,11.00
2019-04-04T21:58:06.633Z,14.00
2019-04-04T22:00:43.154Z,16.77
2019-04-04T22:03:12.604Z,14.57
2019-04-04T22:05:41.981Z,18.07
2019-04-04T22:08:11.333Z,14.17
2019-04-04T22:10:40.677Z,16.70
2019-04-04T22:13:10.691Z,14.07
2019-04-04T22:15:40.027Z,18.80
2019-04-04T22:18:09.447Z,17.40
2019-04-04T22:20:38.793Z,16.63
2019-04-04T22:23:08.156Z,15.50
2019-04-04T22:25:37.519Z,15.90
2019-04-04T22:28:06.879Z,16.13
2019-04-04T22:30:36.221Z,14.73
2019-04-04T22:33:05.609Z,14.70
2019-04-04T22:35:34.959Z,15.23
2019-04-04T22:38:04.319Z,14.80
2019-04-04T22:40:33.662Z,17.83
2019-04-04T22:43:03.027Z,18.13
2019-04-04T22:45:32.370Z,18.57
2019-04-04T22:48:01.736Z,21.77
2019-04-04T22:50:31.079Z,20.20
2019-04-04T22:53:00.438Z,21.17
2019-04-04T22:55:29.794Z,18.30
2019-04-04T22:57:59.153Z,18.40
2019-04-04T23:00:28.491Z,23.10
2019-04-04T23:02:58.864Z,23.40
2019-04-04T23:05:28.207Z,22.13
2019-04-04T23:07:57.571Z,21.67
2019-04-04T23:10:27.015Z,18.30
2019-04-04T23:12:56.336Z,24.73
2019-04-04T23:15:25.741Z,20.57
2019-04-04T23:17:55.037Z,26.63
2019-04-04T23:20:24.380Z,22.33
2019-04-04T23:22:53.756Z,19.20
2019-04-04T23:25:23.096Z,22.57
2019-04-04T23:27:52.471Z,24.57
2019-04-04T23:30:21.891Z,15.93
2019-04-04T23:32:51.270Z,24.00
2019-04-04T23:35:20.632Z,24.07
2019-04-04T23:37:49.994Z,23.30
2019-04-04T23:40:19.362Z,22.53
2019-04-04T23:42:48.731Z,21.83
2019-04-04T23:45:18.086Z,21.00
2019-04-04T23:47:47.456Z,22.27
2019-04-04T23:50:16.816Z,24.77
2019-04-04T23:52:46.170Z,25.37
2019-04-04T23:55:15.531Z,26.80
2019-04-04T23:57:44.887Z,28.80
